Latest Coastal Weather Observations for Hillarys Point Boat Harbour

IDW60701

Issued at 12:32 pm WST Saturday 7 March 2015 (issued every 10 minutes, with the page automatically refreshed every 10 minutes)

About coastal observations | Map of coastal stations | Coastal observations for WA | Marine services | Other Formats
Station Details ID: 009265 Name: HILLARYS BOAT HARBOUR NTC AWS Lat: -31.83 Lon: 115.74 Height: 0.0 m
Data from the previous 72 hours. | See also: Recent months for locations in Western Australia
Date/Time
WST
Temp

°C
Wind Pressure Rain
since 9am
mm
Weather Cloud Vis
km
Sea
Height
m
Swell
Dir
 
Speed
knots
Gust
knots
hPa Trend Height
m
Period
s
Dir
07/12:30pm 25.5 SW 8 11 1016.3 - - - - - - - - -
07/12:00pm 26.4 SSW 4 8 1016.6 - - - - - - - - -
07/11:30am 28.4 ENE 5 9 1017.1 - - - - - - - - -
07/11:00am 27.3 ENE 5 10 1017.5 - - - - - - - - -
07/10:30am 26.4 E 5 10 1017.7 - - - - - - - - -
07/10:00am 25.0 ENE 6 12 1018.0 - - - - - - - - -
07/09:30am 24.1 ENE 7 14 1017.8 - - - - - - - - -
07/09:00am 22.6 ENE 7 14 1017.8 - - - - - - - - -
07/08:30am 21.8 E 7 12 1018.0 - - - - - - - - -
07/08:00am 21.4 SE 2 7 1018.1 - - - - - - - - -
07/07:30am 20.7 E 4 12 1018.1 - - - - - - - - -
07/07:00am 20.4 E 2 7 1018.1 - - - - - - - - -
07/06:30am 20.1 E 7 14 1017.3 - - - - - - - - -
07/06:00am 20.3 E 4 9 1017.3 - - - - - - - - -
07/05:30am 20.5 SE 2 5 1017.0 - - - - - - - - -
07/05:00am 20.9 ENE 6 12 1016.6 - - - - - - - - -
07/04:30am 21.3 E 8 15 1016.4 - - - - - - - - -
07/04:00am 21.6 ENE 8 12 1016.2 - - - - - - - - -
07/03:30am 21.9 E 7 11 1016.3 - - - - - - - - -
07/03:00am 22.1 ENE 8 13 1016.4 - - - - - - - - -
07/02:30am 21.7 E 4 7 1016.6 - - - - - - - - -
07/02:00am 20.7 ENE 4 6 1016.6 - - - - - - - - -
07/01:30am 21.1 ENE 3 5 1016.6 - - - - - - - - -
07/01:00am 21.3 ENE 1 3 1016.4 - - - - - - - - -
07/12:30am 22.5 SSE 3 5 1016.3 - - - - - - - - -
07/12:00am 22.8 SSE 3 6 1016.5 - - - - - - - - -
 
Date/Time
WST
Temp

°C
Wind Pressure Rain
since 9am
mm
Weather Cloud Vis
km
Sea
Height
m
Swell
Dir
 
Speed
knots
Gust
knots
hPa Trend Height
m
Period
s
Dir
06/11:30pm 23.2 SSE 3 7 1016.6 - - - - - - - - -
06/11:00pm 23.2 SSE 2 5 1016.6 - - - - - - - - -
06/10:30pm 23.4 S 2 5 1016.6 - - - - - - - - -
06/10:00pm 23.4 S 2 5 1016.8 - - - - - - - - -
06/09:30pm 23.5 S 3 6 1017.0 - - - - - - - - -
06/09:00pm 23.3 S 2 6 1017.0 - - - - - - - - -
06/08:30pm 23.3 SSW 3 9 1017.1 - - - - - - - - -
06/08:00pm 23.4 SSW 3 9 1016.9 - - - - - - - - -
06/07:30pm 23.3 S 4 12 1016.6 - - - - - - - - -
06/07:00pm 23.3 SSW 4 9 1016.4 - - - - - - - - -
06/06:30pm 23.7 SSW 5 12 1016.3 - - - - - - - - -
06/06:00pm 24.1 SSW 5 11 1016.3 - - - - - - - - -
06/05:30pm 24.1 SSW 6 12 1016.1 - - - - - - - - -
06/05:00pm 24.3 SSW 6 11 1016.1 - - - - - - - - -
06/04:30pm 24.4 SSW 5 13 1016.0 - - - - - - - - -
06/04:00pm 24.3 SSW 6 15 1016.2 - - - - - - - - -
06/03:30pm 24.9 SSW 4 12 1016.4 - - - - - - - - -
06/03:00pm 24.7 SSW 5 11 1016.7 - - - - - - - - -
06/02:30pm 24.8 SSW 5 13 1017.1 - - - - - - - - -
06/02:00pm 24.1 SSW 7 13 1017.7 - - - - - - - - -
06/01:30pm 24.4 SSW 7 14 1017.9 - - - - - - - - -
06/01:00pm 25.0 SW 8 14 1017.9 - - - - - - - - -
06/12:42pm 24.8 SSW 6 13 1018.1 - - - - - - - - -
06/12:30pm 29.8 SSE 4 8 1018.2 - - - - - - - - -
06/12:00pm 29.8 ENE 6 17 1018.6 - - - - - - - - -
06/11:30am 28.1 ENE 8 18 1019.2 - - - - - - - - -
06/11:00am 27.8 ENE 8 14 1019.6 - - - - - - - - -
06/10:30am 27.4 ENE 6 11 1019.8 - - - - - - - - -
06/10:00am 26.4 E 7 11 1020.1 - - - - - - - - -
06/09:30am 25.2 ENE 9 16 1020.3 - - - - - - - - -
06/09:00am 24.1 ENE 7 13 1020.2 - - - - - - - - -
06/08:30am 23.0 ENE 4 8 1020.3 - - - - - - - - -
06/08:00am 22.0 E 4 7 1020.5 - - - - - - - - -
06/07:30am 21.0 E 3 6 1020.4 - - - - - - - - -
06/07:00am 20.0 E 2 5 1020.4 - - - - - - - - -
06/06:30am 19.6 E 2 4 1020.3 - - - - - - - - -
06/06:00am 19.9 E 2 5 1020.1 - - - - - - - - -
06/05:30am 20.3 ENE 4 7 1019.8 - - - - - - - - -
06/05:00am 20.6 ENE 4 9 1019.9 - - - - - - - - -
06/04:30am 21.1 ENE 5 7 1019.6 - - - - - - - - -
06/04:00am 21.5 ENE 6 9 1019.3 - - - - - - - - -
06/03:30am 21.8 ENE 6 11 1019.5 - - - - - - - - -
06/03:00am 22.3 ENE 7 11 1019.5 - - - - - - - - -
06/02:30am 22.8 ENE 7 12 1019.2 - - - - - - - - -
06/02:00am 23.4 E 7 13 1019.2 - - - - - - - - -
06/01:30am 24.0 E 6 13 1019.3 - - - - - - - - -
06/01:00am 24.8 E 6 14 1019.3 - - - - - - - - -
06/12:30am 24.7 E 3 7 1019.6 - - - - - - - - -
06/12:00am 24.7 E 2 4 1019.7 - - - - - - - - -
 
Date/Time
WST
Temp

°C
Wind Pressure Rain
since 9am
mm
Weather Cloud Vis
km
Sea
Height
m
Swell
Dir
 
Speed
knots
Gust
knots
hPa Trend Height
m
Period
s
Dir
05/11:30pm 25.4 E 3 4 1019.6 - - - - - - - - -
05/11:00pm 25.8 E 2 5 1019.7 - - - - - - - - -
05/10:30pm 26.1 E 2 5 1019.8 - - - - - - - - -
05/10:00pm 26.5 E 2 5 1020.1 - - - - - - - - -
05/09:30pm 26.6 E 1 5 1020.3 - - - - - - - - -
05/09:00pm 24.5 SSE 1 3 1020.1 - - - - - - - - -
05/08:30pm 24.1 S 2 5 1019.8 - - - - - - - - -
05/08:00pm 24.3 SSE 2 5 1019.5 - - - - - - - - -
05/07:30pm 24.3 S 1 5 1019.1 - - - - - - - - -
05/07:00pm 24.4 S 1 7 1018.7 - - - - - - - - -
05/06:30pm 24.8 S 2 8 1018.5 - - - - - - - - -
05/06:00pm 25.0 SSW 3 9 1018.4 - - - - - - - - -
05/05:30pm 25.3 SSW 3 9 1018.4 - - - - - - - - -
05/05:00pm 25.1 SSW 4 10 1018.3 - - - - - - - - -
05/04:30pm 25.0 SSW 6 13 1018.1 - - - - - - - - -
05/04:00pm 25.9 SSW 8 14 1018.2 - - - - - - - - -
05/03:41pm 26.0 SW 4 14 1018.2 - - - - - - - - -
05/03:30pm 31.2 SSE 3 8 1018.2 - - - - - - - - -
05/03:00pm 31.8 ESE 5 11 1018.6 - - - - - - - - -
05/02:30pm 30.8 ENE 6 13 1018.9 - - - - - - - - -
05/02:00pm 30.3 ESE 5 10 1019.5 - - - - - - - - -
05/01:30pm 29.9 NE 6 15 1020.0 - - - - - - - - -
05/01:00pm 29.2 ENE 9 16 1020.4 - - - - - - - - -
05/12:30pm 28.6 E 7 13 1020.9 - - - - - - - - -
05/12:00pm 28.1 ENE 9 19 1021.4 - - - - - - - - -
05/11:30am 27.1 ENE 7 14 1021.8 - - - - - - - - -
05/11:00am 26.2 E 7 13 1022.3 - - - - - - - - -
05/10:30am 25.8 ENE 9 15 1022.6 - - - - - - - - -
05/10:00am 25.1 ENE 9 17 1022.9 - - - - - - - - -
05/09:30am 24.1 ENE 9 17 1022.9 - - - - - - - - -
05/09:00am 22.8 ENE 7 12 1023.0 - - - - - - - - -
05/08:30am 21.6 ENE 7 10 1023.1 - - - - - - - - -
05/08:00am 20.7 ENE 5 9 1023.2 - - - - - - - - -
05/07:30am 20.1 E 4 8 1023.1 - - - - - - - - -
05/07:00am 19.3 E 3 7 1022.8 - - - - - - - - -
05/06:30am 18.9 E 3 7 1022.5 - - - - - - - - -
05/06:00am 18.9 E 3 7 1022.3 - - - - - - - - -
05/05:30am 19.2 E 3 7 1022.1 - - - - - - - - -
05/05:00am 19.5 E 4 8 1021.8 - - - - - - - - -
05/04:30am 19.9 E 3 6 1021.6 - - - - - - - - -
05/04:00am 20.3 E 4 9 1021.3 - - - - - - - - -
05/03:30am 20.9 E 5 9 1021.2 - - - - - - - - -
05/03:00am 21.4 E 6 13 1020.9 - - - - - - - - -
05/02:30am 21.8 E 6 15 1020.6 - - - - - - - - -
05/02:00am 22.6 E 7 17 1020.5 - - - - - - - - -
05/01:30am 23.5 E 6 15 1020.3 - - - - - - - - -
05/01:00am 24.2 E 7 14 1020.3 - - - - - - - - -
05/12:30am 24.6 E 6 12 1020.4 - - - - - - - - -
05/12:00am 25.2 E 5 11 1020.3 - - - - - - - - -
 
Date/Time
WST
Temp

°C
Wind Pressure Rain
since 9am
mm
Weather Cloud Vis
km
Sea
Height
m
Swell
Dir
 
Speed
knots
Gust
knots
hPa Trend Height
m
Period
s
Dir
04/11:30pm 25.9 E 6 13 1020.1 - - - - - - - - -
04/11:00pm 26.3 E 6 15 1020.0 - - - - - - - - -
04/10:30pm 26.9 E 5 13 1019.8 - - - - - - - - -
04/10:00pm 26.9 E 3 6 1019.8 - - - - - - - - -
04/09:30pm 26.3 ESE 2 5 1019.8 - - - - - - - - -
04/09:00pm 24.0 ESE 1 3 1019.7 - - - - - - - - -
04/08:30pm 23.7 SSE 2 5 1019.4 - - - - - - - - -
04/08:00pm 23.9 S 3 8 1019.1 - - - - - - - - -
04/07:30pm 24.0 S 3 9 1018.8 - - - - - - - - -
04/07:00pm 23.7 S 3 9 1018.7 - - - - - - - - -
04/06:30pm 23.9 S 4 11 1018.6 - - - - - - - - -
04/06:00pm 24.4 SSW 4 11 1018.4 - - - - - - - - -
04/05:30pm 24.5 SSW 4 11 1018.3 - - - - - - - - -
04/05:00pm 24.4 S 4 13 1018.1 - - - - - - - - -
04/04:30pm 24.3 SSW 6 15 1018.2 - - - - - - - - -
04/04:00pm 24.1 SSW 5 11 1018.1 - - - - - - - - -
04/03:30pm 24.2 SSW 5 13 1018.1 - - - - - - - - -
04/03:00pm 24.6 SSW 5 12 1018.3 - - - - - - - - -
04/02:30pm 24.6 SSW 6 13 1018.4 - - - - - - - - -
04/02:00pm 24.3 SSW 8 15 1018.8 - - - - - - - - -
04/01:30pm 24.4 SW 9 14 1019.1 - - - - - - - - -
04/01:00pm 25.6 SW 5 11 1019.2 - - - - - - - - -

Other Formats:

Comma delimited format used in spreadsheet applications
http://www.bom.gov.au/fwo/IDW60701/IDW60701.95605.axf

JavaScript Object Notation format (JSON) in row-major order
http://www.bom.gov.au/fwo/IDW60701/IDW60701.95605.json